Sang Run, Maryland
Current Conditions -  °F | °C
As of 11:05 AM on Monday 24 Nov 2014 (Local Time) from K2G4 Reporting Station
Clear Clear  
Wind Chill: 63°   Ceiling: Unl
Heat Index: 63°   Visibility: 10mi
Dew Point: 32°   Wind: 16mph
Humidity: 32%   Direction: 210°SSW
Pressure: 29.55"   Gusts: 31mph
Location:  39.5587°N, 79.3486°W
Report Text: K2G4 241605Z AUTO 21014G27KT 10SM CLR 17/00 A2955 RMK AO1
Loading
Personal Weather Stations






























Interactive Weather Map New forecast layout! Learn more

10-Day Weather Forecast

Advertisements
Track Severe Weather on mobile